createdAt,value
2022-09-13T00:01:29.061Z,9.28
2022-09-13T00:03:59.366Z,9.25
2022-09-13T00:06:28.940Z,9.23
2022-09-13T00:08:58.203Z,9.21
2022-09-13T00:11:29.517Z,9.19
2022-09-13T00:13:59.637Z,9.17
2022-09-13T00:16:29.866Z,9.15
2022-09-13T00:19:01.708Z,9.12
2022-09-13T00:21:30.976Z,9.09
2022-09-13T00:24:00.227Z,9.07
2022-09-13T00:26:30.339Z,9.04
2022-09-13T00:29:00.476Z,9.01
2022-09-13T00:31:30.416Z,8.99
2022-09-13T00:34:02.547Z,8.96
2022-09-13T00:36:31.714Z,8.95
2022-09-13T00:39:01.940Z,8.92
2022-09-13T00:41:31.343Z,8.89
2022-09-13T00:44:02.421Z,8.87
2022-09-13T00:46:38.311Z,8.84
2022-09-13T00:49:15.109Z,8.81
2022-09-13T00:51:50.294Z,8.79
2022-09-13T00:54:23.614Z,8.76
2022-09-13T00:56:56.835Z,8.74
2022-09-13T00:59:29.929Z,8.72
2022-09-13T01:01:59.569Z,8.69
2022-09-13T01:04:32.116Z,8.68
2022-09-13T01:07:05.240Z,8.65
2022-09-13T01:09:38.123Z,8.62
2022-09-13T01:12:12.472Z,8.59
2022-09-13T01:14:41.761Z,8.56
2022-09-13T01:17:10.961Z,8.52
2022-09-13T01:19:41.280Z,8.49
2022-09-13T01:22:55.421Z,8.45
2022-09-13T01:26:15.078Z,8.41
2022-09-13T01:29:18.357Z,8.37
2022-09-13T01:31:52.895Z,8.34
2022-09-13T01:34:36.609Z,8.32
2022-09-13T01:37:25.997Z,8.30
2022-09-13T01:40:03.457Z,8.27
2022-09-13T01:42:48.823Z,8.24
2022-09-13T01:45:29.656Z,8.22
2022-09-13T01:48:04.090Z,8.19
2022-09-13T01:50:40.996Z,8.17
2022-09-13T01:53:20.541Z,8.16
2022-09-13T01:55:55.860Z,8.13
2022-09-13T01:58:30.520Z,8.12
2022-09-13T02:01:08.866Z,8.10
2022-09-13T02:03:45.929Z,8.08
2022-09-13T02:06:21.390Z,8.06
2022-09-13T02:08:54.654Z,8.06
2022-09-13T02:11:24.149Z,8.04
2022-09-13T02:13:58.806Z,8.02
2022-09-13T02:16:33.119Z,8.01
2022-09-13T02:19:08.460Z,7.99
2022-09-13T02:21:41.243Z,7.98
2022-09-13T02:24:16.823Z,7.97
2022-09-13T02:26:49.441Z,7.96
2022-09-13T02:29:23.245Z,7.94
2022-09-13T02:31:58.736Z,7.94
2022-09-13T02:34:37.074Z,7.91
2022-09-13T02:37:09.267Z,7.91
2022-09-13T02:39:42.999Z,7.88
2022-09-13T02:42:18.564Z,7.87
2022-09-13T02:44:50.959Z,7.86
2022-09-13T02:47:46.625Z,7.85
2022-09-13T02:50:36.194Z,7.83
2022-09-13T02:53:10.888Z,7.80
2022-09-13T02:55:49.588Z,7.77
2022-09-13T02:58:27.359Z,7.74
2022-09-13T03:00:56.780Z,7.72
2022-09-13T03:03:26.297Z,7.71
2022-09-13T03:05:56.500Z,7.69
2022-09-13T03:08:26.426Z,7.67
2022-09-13T03:11:10.363Z,7.65
2022-09-13T03:13:56.891Z,7.64
2022-09-13T03:16:44.658Z,7.62
2022-09-13T03:19:29.547Z,7.61
2022-09-13T03:22:27.055Z,7.59
2022-09-13T03:25:07.153Z,7.56
2022-09-13T03:27:43.706Z,7.56
2022-09-13T03:30:15.505Z,7.52
2022-09-13T03:32:52.747Z,7.51
2022-09-13T03:35:31.296Z,7.48
2022-09-13T03:38:06.777Z,7.46
2022-09-13T03:40:45.753Z,7.44
2022-09-13T03:43:19.597Z,7.41
2022-09-13T03:45:52.270Z,7.40
2022-09-13T03:48:22.615Z,7.40
2022-09-13T03:50:52.064Z,7.38
2022-09-13T03:53:27.194Z,7.36
2022-09-13T03:55:56.296Z,7.35
2022-09-13T03:58:28.704Z,7.33
2022-09-13T04:00:58.047Z,7.32
2022-09-13T04:03:26.904Z,7.33
2022-09-13T04:05:55.744Z,7.32
2022-09-13T04:08:26.347Z,7.32
2022-09-13T04:10:55.153Z,7.31
2022-09-13T04:13:24.083Z,7.30
2022-09-13T04:15:53.151Z,7.30
2022-09-13T04:18:22.258Z,7.30
2022-09-13T04:20:56.163Z,7.29
2022-09-13T04:23:28.538Z,7.30
2022-09-13T04:26:02.074Z,7.30
2022-09-13T04:28:31.302Z,7.31
2022-09-13T04:31:00.153Z,7.30
2022-09-13T04:33:29.202Z,7.29
2022-09-13T04:36:00.545Z,7.29
2022-09-13T04:38:32.108Z,7.30
2022-09-13T04:41:06.131Z,7.30
2022-09-13T04:43:35.237Z,7.31
2022-09-13T04:46:04.330Z,7.33
2022-09-13T04:48:33.259Z,7.36
2022-09-13T04:51:05.721Z,7.39
2022-09-13T04:53:37.747Z,7.42
2022-09-13T04:56:07.623Z,7.45
2022-09-13T04:58:36.643Z,7.50
2022-09-13T05:01:06.853Z,7.56
2022-09-13T05:03:37.535Z,7.62
2022-09-13T05:06:07.892Z,7.68
2022-09-13T05:08:39.016Z,7.75
2022-09-13T05:11:09.151Z,7.83
2022-09-13T05:13:39.555Z,7.91
2022-09-13T05:16:09.485Z,8.00
2022-09-13T05:18:43.145Z,8.07
2022-09-13T05:21:13.857Z,8.15
2022-09-13T05:23:44.277Z,8.23
2022-09-13T05:26:13.471Z,8.31
2022-09-13T05:28:42.391Z,8.38
2022-09-13T05:31:16.357Z,8.46
2022-09-13T05:33:46.009Z,8.55
2022-09-13T05:36:15.195Z,8.62
2022-09-13T05:38:45.649Z,8.72
2022-09-13T05:41:14.670Z,8.81
2022-09-13T05:43:43.738Z,8.90
2022-09-13T05:46:15.103Z,8.99
2022-09-13T05:48:44.607Z,9.08
2022-09-13T05:51:15.127Z,9.16
2022-09-13T05:53:47.181Z,9.24
2022-09-13T05:56:17.878Z,9.34
2022-09-13T05:58:49.337Z,9.42
2022-09-13T06:01:20.105Z,9.52
2022-09-13T06:03:50.229Z,9.60
2022-09-13T06:06:20.347Z,9.70
2022-09-13T06:08:54.729Z,9.79
2022-09-13T06:11:25.625Z,9.88
2022-09-13T06:13:54.978Z,9.97
2022-09-13T06:16:23.909Z,10.06
2022-09-13T06:18:53.056Z,10.16
2022-09-13T06:21:28.782Z,10.26
2022-09-13T06:23:59.899Z,10.36
2022-09-13T06:26:30.234Z,10.47
2022-09-13T06:28:59.667Z,10.58
2022-09-13T06:31:29.998Z,10.70
2022-09-13T06:34:01.008Z,10.82
2022-09-13T06:36:31.777Z,10.94
2022-09-13T06:39:02.258Z,11.07
2022-09-13T06:41:31.907Z,11.20
2022-09-13T06:44:02.279Z,11.33
2022-09-13T06:46:33.072Z,11.46
2022-09-13T06:49:04.673Z,11.58
2022-09-13T06:51:35.087Z,11.71
2022-09-13T06:54:05.786Z,11.84
2022-09-13T06:56:36.710Z,11.95
2022-09-13T06:59:08.894Z,12.09
2022-09-13T07:01:40.115Z,12.22
2022-09-13T07:04:11.595Z,12.33
2022-09-13T07:06:42.436Z,12.45
2022-09-13T07:09:17.331Z,12.57
2022-09-13T07:11:47.108Z,12.69
2022-09-13T07:14:17.580Z,12.78
2022-09-13T07:16:47.329Z,12.88
2022-09-13T07:19:18.560Z,12.99
2022-09-13T07:21:49.934Z,13.08
2022-09-13T07:24:21.453Z,13.18
2022-09-13T07:26:51.081Z,13.27
2022-09-13T07:29:23.860Z,13.36
2022-09-13T07:31:55.318Z,13.45
2022-09-13T07:34:25.911Z,13.55
2022-09-13T07:36:55.387Z,13.63
2022-09-13T07:39:25.603Z,13.73
2022-09-13T07:41:55.103Z,13.81
2022-09-13T07:44:24.697Z,13.89
2022-09-13T07:46:53.612Z,13.99
2022-09-13T07:49:22.836Z,14.07
2022-09-13T07:51:53.021Z,14.17
2022-09-13T07:54:23.865Z,14.28
2022-09-13T07:56:54.043Z,14.36
2022-09-13T07:59:26.926Z,14.44
2022-09-13T08:01:59.232Z,14.52
2022-09-13T08:04:28.349Z,14.61
2022-09-13T08:06:57.133Z,14.69
2022-09-13T08:09:27.671Z,14.76
2022-09-13T08:11:56.990Z,14.84
2022-09-13T08:14:25.696Z,14.90
2022-09-13T08:16:57.867Z,14.96
2022-09-13T08:19:27.017Z,15.04
2022-09-13T08:21:56.046Z,15.11
2022-09-13T08:24:26.729Z,15.16
2022-09-13T08:26:57.023Z,15.22
2022-09-13T08:29:26.409Z,15.28
2022-09-13T08:31:55.406Z,15.33
2022-09-13T08:34:24.236Z,15.39
2022-09-13T08:36:53.551Z,15.44
2022-09-13T08:39:22.631Z,15.51
2022-09-13T08:42:08.103Z,15.55
2022-09-13T08:44:46.566Z,15.60
2022-09-13T08:47:33.636Z,15.68
2022-09-13T08:50:12.866Z,15.73
2022-09-13T08:52:55.749Z,15.78
2022-09-13T08:55:34.365Z,15.81
2022-09-13T08:58:16.663Z,15.84
2022-09-13T09:00:51.326Z,15.88
2022-09-13T09:03:29.867Z,15.90
2022-09-13T09:05:59.014Z,15.93
2022-09-13T09:08:34.442Z,15.98
2022-09-13T09:11:09.096Z,15.99
2022-09-13T09:13:50.109Z,16.02
2022-09-13T09:16:31.132Z,16.07
2022-09-13T09:19:06.634Z,16.10
2022-09-13T09:21:36.203Z,16.14
2022-09-13T09:24:06.041Z,16.18
2022-09-13T09:26:35.026Z,16.19
2022-09-13T09:29:13.843Z,16.21
2022-09-13T09:31:50.663Z,16.25
2022-09-13T09:34:32.284Z,16.28
2022-09-13T09:37:09.504Z,16.31
2022-09-13T09:39:40.839Z,16.33
2022-09-13T09:42:14.316Z,16.35
2022-09-13T09:44:48.858Z,16.37
2022-09-13T09:47:20.393Z,16.37
2022-09-13T09:50:11.060Z,16.38
2022-09-13T09:52:45.881Z,16.41
2022-09-13T09:55:28.782Z,16.45
2022-09-13T09:58:00.079Z,16.47
2022-09-13T10:00:34.384Z,16.53
2022-09-13T10:03:07.867Z,16.59
2022-09-13T10:05:37.735Z,16.63
2022-09-13T10:08:08.088Z,16.70
2022-09-13T10:10:42.695Z,16.77
2022-09-13T10:13:18.149Z,16.85
2022-09-13T10:15:59.137Z,16.94
2022-09-13T10:18:44.106Z,17.02
2022-09-13T10:21:25.015Z,17.12
2022-09-13T10:24:14.196Z,17.23
2022-09-13T10:26:43.277Z,17.34
2022-09-13T10:29:16.329Z,17.43
2022-09-13T10:31:50.009Z,17.53
2022-09-13T10:34:23.045Z,17.61
2022-09-13T10:36:57.561Z,17.72
2022-09-13T10:39:29.594Z,17.82
2022-09-13T10:42:03.555Z,17.91
2022-09-13T10:44:38.210Z,17.98
2022-09-13T10:47:13.664Z,18.07
2022-09-13T10:49:50.565Z,18.16
2022-09-13T10:52:28.970Z,18.25
2022-09-13T10:55:16.862Z,18.32
2022-09-13T10:57:47.744Z,18.41
2022-09-13T11:00:20.063Z,18.50
2022-09-13T11:03:07.434Z,18.59
2022-09-13T11:05:45.870Z,18.67
2022-09-13T11:08:43.045Z,18.76
2022-09-13T11:11:23.218Z,18.85
2022-09-13T11:14:06.465Z,18.92
2022-09-13T11:16:44.712Z,19.00
2022-09-13T11:19:37.607Z,19.11
2022-09-13T11:22:32.294Z,19.19
2022-09-13T11:25:18.507Z,19.27
2022-09-13T11:27:56.223Z,19.33
2022-09-13T11:30:30.071Z,19.37
2022-09-13T11:33:22.953Z,19.42
2022-09-13T11:36:12.216Z,19.45
2022-09-13T11:38:53.873Z,19.48
2022-09-13T11:41:33.738Z,19.52
2022-09-13T11:44:29.317Z,19.54
2022-09-13T11:47:05.695Z,19.56
2022-09-13T11:50:14.376Z,19.60
2022-09-13T11:52:53.648Z,19.62
2022-09-13T11:55:29.291Z,19.66
2022-09-13T11:58:02.185Z,19.70
2022-09-13T12:00:36.139Z,19.75
2022-09-13T12:03:13.467Z,19.82
2022-09-13T12:05:48.311Z,19.90
2022-09-13T12:08:22.988Z,19.95
2022-09-13T12:10:55.063Z,19.97
2022-09-13T12:13:27.265Z,19.97
2022-09-13T12:16:01.106Z,19.96
2022-09-13T12:18:33.419Z,19.95
2022-09-13T12:21:08.993Z,19.93
2022-09-13T12:23:44.642Z,19.89
2022-09-13T12:26:21.876Z,19.88
2022-09-13T12:28:55.718Z,19.85
2022-09-13T12:31:28.139Z,19.82
2022-09-13T12:33:57.645Z,19.80
2022-09-13T12:37:05.251Z,19.77
2022-09-13T12:39:57.711Z,19.72
2022-09-13T12:42:59.477Z,19.67
2022-09-13T12:45:44.940Z,19.63
2022-09-13T12:48:47.876Z,19.59
2022-09-13T12:51:29.891Z,19.55
2022-09-13T12:54:28.489Z,19.50
2022-09-13T12:57:10.571Z,19.45
2022-09-13T12:59:57.905Z,19.40
2022-09-13T13:02:34.900Z,19.36
2022-09-13T13:05:16.378Z,19.32
2022-09-13T13:07:55.447Z,19.28
2022-09-13T13:10:30.584Z,19.27
2022-09-13T13:13:12.648Z,19.26
2022-09-13T13:16:04.828Z,19.25
2022-09-13T13:18:46.051Z,19.22
2022-09-13T13:21:34.446Z,19.18
2022-09-13T13:24:47.060Z,19.13
2022-09-13T13:27:36.855Z,19.05
2022-09-13T13:30:52.212Z,19.00
2022-09-13T13:33:27.113Z,18.93
2022-09-13T13:35:56.840Z,18.89
2022-09-13T13:38:41.574Z,18.85
2022-09-13T13:41:44.524Z,18.81
2022-09-13T13:44:51.136Z,18.78
2022-09-13T13:47:53.216Z,18.74
2022-09-13T13:50:22.901Z,18.72
2022-09-13T13:53:03.173Z,18.68
2022-09-13T13:55:42.289Z,18.67
2022-09-13T13:58:38.987Z,18.64
2022-09-13T14:01:16.168Z,18.66
2022-09-13T14:04:12.220Z,18.67
2022-09-13T14:06:54.177Z,18.74
2022-09-13T14:09:38.199Z,18.84
2022-09-13T14:12:24.393Z,18.95
2022-09-13T14:15:16.355Z,19.07
2022-09-13T14:18:27.464Z,19.17
2022-09-13T14:21:02.185Z,19.23
2022-09-13T14:23:32.133Z,19.24
2022-09-13T14:26:02.291Z,19.24
2022-09-13T14:28:33.253Z,19.23
2022-09-13T14:31:02.296Z,19.22
2022-09-13T14:33:35.044Z,19.20
2022-09-13T14:36:07.986Z,19.19
2022-09-13T14:38:38.935Z,19.17
2022-09-13T14:41:14.390Z,19.13
2022-09-13T14:43:44.593Z,19.12
2022-09-13T14:46:18.869Z,19.11
2022-09-13T14:48:52.547Z,19.09
2022-09-13T14:51:28.638Z,19.08
2022-09-13T14:54:03.186Z,19.08
2022-09-13T14:56:38.736Z,19.06
2022-09-13T14:59:14.508Z,19.04
2022-09-13T15:01:43.712Z,19.02
2022-09-13T15:04:12.819Z,18.97
2022-09-13T15:06:44.286Z,18.95
2022-09-13T15:09:27.193Z,18.92
2022-09-13T15:12:01.136Z,18.89
2022-09-13T15:14:32.349Z,18.86
2022-09-13T15:17:08.138Z,18.84
2022-09-13T15:19:42.650Z,18.81
2022-09-13T15:22:23.041Z,18.77
2022-09-13T15:24:54.920Z,18.74
2022-09-13T15:27:27.910Z,18.72
2022-09-13T15:30:00.258Z,18.70
2022-09-13T15:32:34.859Z,18.68
2022-09-13T15:35:05.462Z,18.65
2022-09-13T15:37:39.806Z,18.63
2022-09-13T15:40:22.192Z,18.61
2022-09-13T15:42:52.153Z,18.58
2022-09-13T15:45:22.675Z,18.54
2022-09-13T15:47:53.222Z,18.48
2022-09-13T15:50:27.580Z,18.41
2022-09-13T15:52:58.444Z,18.36
2022-09-13T15:55:32.174Z,18.30
2022-09-13T15:58:01.187Z,18.26
2022-09-13T16:00:30.118Z,18.20
2022-09-13T16:03:00.091Z,18.16
2022-09-13T16:05:29.072Z,18.08
2022-09-13T16:07:59.895Z,18.04
2022-09-13T16:10:30.187Z,17.99
2022-09-13T16:12:59.300Z,17.95
2022-09-13T16:15:29.115Z,17.91
2022-09-13T16:17:58.116Z,17.90
2022-09-13T16:20:27.764Z,17.88
2022-09-13T16:22:58.208Z,17.84
2022-09-13T16:25:27.859Z,17.80
2022-09-13T16:27:57.528Z,17.78
2022-09-13T16:30:27.942Z,17.74
2022-09-13T16:32:57.250Z,17.71
2022-09-13T16:35:30.294Z,17.70
2022-09-13T16:38:00.730Z,17.66
2022-09-13T16:40:29.984Z,17.63
2022-09-13T16:42:59.187Z,17.62
2022-09-13T16:45:27.838Z,17.57
2022-09-13T16:47:56.915Z,17.55
2022-09-13T16:50:25.768Z,17.50
2022-09-13T16:52:54.643Z,17.46
2022-09-13T16:55:26.746Z,17.43
2022-09-13T16:57:55.835Z,17.40
2022-09-13T17:00:28.589Z,17.35
2022-09-13T17:02:58.168Z,17.34
2022-09-13T17:05:27.601Z,17.32
2022-09-13T17:07:56.745Z,17.27
2022-09-13T17:10:27.012Z,17.21
2022-09-13T17:12:56.052Z,17.17
2022-09-13T17:15:24.900Z,17.12
2022-09-13T17:17:53.968Z,17.07
2022-09-13T17:20:23.225Z,17.00
2022-09-13T17:22:52.111Z,16.93
2022-09-13T17:25:21.029Z,16.86
2022-09-13T17:27:52.022Z,16.80
2022-09-13T17:30:21.144Z,16.73
2022-09-13T17:32:50.084Z,16.67
2022-09-13T17:35:19.291Z,16.61
2022-09-13T17:37:50.348Z,16.53
2022-09-13T17:40:19.368Z,16.46
2022-09-13T17:42:50.241Z,16.38
2022-09-13T17:45:19.328Z,16.31
2022-09-13T17:47:50.187Z,16.23
2022-09-13T17:50:19.069Z,16.16
2022-09-13T17:52:49.102Z,16.08
2022-09-13T17:55:18.094Z,16.00
2022-09-13T17:57:51.157Z,15.93
2022-09-13T18:00:20.626Z,15.87
2022-09-13T18:02:49.620Z,15.80
2022-09-13T18:05:19.246Z,15.73
2022-09-13T18:07:49.169Z,15.67
2022-09-13T18:10:40.644Z,15.60
2022-09-13T18:13:09.311Z,15.53
2022-09-13T18:15:38.389Z,15.46
2022-09-13T18:18:08.351Z,15.40
2022-09-13T18:20:40.462Z,15.35
2022-09-13T18:23:10.624Z,15.30
2022-09-13T18:25:39.499Z,15.23
2022-09-13T18:28:09.725Z,15.18
2022-09-13T18:30:38.791Z,15.11
2022-09-13T18:33:11.336Z,15.06
2022-09-13T18:35:40.901Z,15.00
2022-09-13T18:38:09.715Z,14.94
2022-09-13T18:40:38.867Z,14.88
2022-09-13T18:43:09.813Z,14.81
2022-09-13T18:45:39.953Z,14.76
2022-09-13T18:48:09.218Z,14.69
2022-09-13T18:50:44.087Z,14.65
2022-09-13T18:53:13.242Z,14.61
2022-09-13T18:55:43.941Z,14.58
2022-09-13T18:58:14.657Z,14.51
2022-09-13T19:00:46.489Z,14.49
2022-09-13T19:03:16.100Z,14.44
2022-09-13T19:05:45.576Z,14.40
2022-09-13T19:08:14.998Z,14.37
2022-09-13T19:10:44.061Z,14.36
2022-09-13T19:13:17.881Z,14.33
2022-09-13T19:15:47.262Z,14.29
2022-09-13T19:18:20.730Z,14.25
2022-09-13T19:20:49.825Z,14.21
2022-09-13T19:23:20.572Z,14.18
2022-09-13T19:25:50.474Z,14.13
2022-09-13T19:28:22.228Z,14.11
2022-09-13T19:30:52.602Z,14.07
2022-09-13T19:33:22.042Z,14.05
2022-09-13T19:35:51.124Z,14.01
2022-09-13T19:38:20.184Z,13.99
2022-09-13T19:40:58.192Z,13.95
2022-09-13T19:43:31.538Z,13.93
2022-09-13T19:46:04.012Z,13.89
2022-09-13T19:48:38.684Z,13.86
2022-09-13T19:51:10.206Z,13.83
2022-09-13T19:53:56.528Z,13.79
2022-09-13T19:56:28.462Z,13.76
2022-09-13T19:59:00.886Z,13.73
2022-09-13T20:01:33.755Z,13.71
2022-09-13T20:04:04.943Z,13.68
2022-09-13T20:06:37.061Z,13.64
2022-09-13T20:09:06.661Z,13.61
2022-09-13T20:11:41.278Z,13.58
2022-09-13T20:14:15.624Z,13.55
2022-09-13T20:16:45.041Z,13.53
2022-09-13T20:19:39.328Z,13.50
2022-09-13T20:22:09.489Z,13.47
2022-09-13T20:24:39.313Z,13.45
2022-09-13T20:27:08.291Z,13.43
2022-09-13T20:29:38.804Z,13.40
2022-09-13T20:32:08.139Z,13.37
2022-09-13T20:34:37.834Z,13.34
2022-09-13T20:37:07.162Z,13.32
2022-09-13T20:39:36.244Z,13.28
2022-09-13T20:42:05.353Z,13.25
2022-09-13T20:44:34.430Z,13.21
2022-09-13T20:47:05.372Z,13.16
2022-09-13T20:49:34.240Z,13.12
2022-09-13T20:52:03.574Z,13.10
2022-09-13T20:54:32.676Z,13.04
2022-09-13T20:57:01.594Z,13.00
2022-09-13T20:59:30.781Z,12.96
2022-09-13T21:01:59.769Z,12.93
2022-09-13T21:04:31.024Z,12.88
2022-09-13T21:07:17.283Z,12.84
2022-09-13T21:09:46.226Z,12.80
2022-09-13T21:12:15.585Z,12.76
2022-09-13T21:14:46.351Z,12.71
2022-09-13T21:17:15.215Z,12.66
2022-09-13T21:19:45.878Z,12.60
2022-09-13T21:22:14.860Z,12.54
2022-09-13T21:24:43.975Z,12.48
2022-09-13T21:27:13.124Z,12.43
2022-09-13T21:29:42.426Z,12.37
2022-09-13T21:32:11.439Z,12.31
2022-09-13T21:34:40.705Z,12.25
2022-09-13T21:37:11.358Z,12.19
2022-09-13T21:39:40.247Z,12.14
2022-09-13T21:42:09.698Z,12.08
2022-09-13T21:44:39.768Z,12.03
2022-09-13T21:47:08.676Z,11.98
2022-09-13T21:49:37.832Z,11.93
2022-09-13T21:52:06.672Z,11.89
2022-09-13T21:54:36.992Z,11.84
2022-09-13T21:57:06.372Z,11.80
2022-09-13T21:59:35.265Z,11.75
2022-09-13T22:02:04.230Z,11.68
2022-09-13T22:04:34.324Z,11.65
2022-09-13T22:07:03.252Z,11.60
2022-09-13T22:09:32.295Z,11.56
2022-09-13T22:12:02.957Z,11.50
2022-09-13T22:14:32.106Z,11.46
2022-09-13T22:17:01.876Z,11.43
2022-09-13T22:19:31.695Z,11.38
2022-09-13T22:22:01.567Z,11.33
2022-09-13T22:24:35.759Z,11.28
2022-09-13T22:27:07.190Z,11.24
2022-09-13T22:29:36.303Z,11.20
2022-09-13T22:32:05.533Z,11.16
2022-09-13T22:34:35.043Z,11.12
2022-09-13T22:37:04.250Z,11.08
2022-09-13T22:39:33.104Z,11.03
2022-09-13T22:42:02.185Z,10.99
2022-09-13T22:44:33.313Z,10.96
2022-09-13T22:47:02.258Z,10.92
2022-09-13T22:49:31.535Z,10.89
2022-09-13T22:52:00.391Z,10.86
2022-09-13T22:54:29.541Z,10.84
2022-09-13T22:56:58.645Z,10.82
2022-09-13T22:59:27.948Z,10.81
2022-09-13T23:01:58.308Z,10.79
2022-09-13T23:04:27.584Z,10.76
2022-09-13T23:06:56.698Z,10.74
2022-09-13T23:09:25.504Z,10.73
2022-09-13T23:11:54.560Z,10.70
2022-09-13T23:14:23.530Z,10.68
2022-09-13T23:16:54.192Z,10.66
2022-09-13T23:19:25.762Z,10.65
2022-09-13T23:21:55.331Z,10.64
2022-09-13T23:24:24.803Z,10.65
2022-09-13T23:26:57.058Z,10.67
2022-09-13T23:29:26.395Z,10.68
2022-09-13T23:31:55.626Z,10.70
2022-09-13T23:34:26.240Z,10.74
2022-09-13T23:36:55.266Z,10.77
2022-09-13T23:39:24.116Z,10.82
2022-09-13T23:41:53.183Z,10.85
2022-09-13T23:44:22.305Z,10.92
2022-09-13T23:46:51.335Z,10.97
2022-09-13T23:49:20.159Z,11.01
2022-09-13T23:51:50.682Z,11.09
2022-09-13T23:54:19.656Z,11.14
2022-09-13T23:56:48.504Z,11.19
2022-09-13T23:59:18.088Z,11.23
